sensor_id;sensor_type;location;lat;lon;timestamp;pressure;altitude;pressure_sealevel;temperature;humidity
3178;BME280;38141;42.666;23.344;2023-01-16T00:00:03;94469.41;;;0.19;100.00
3178;BME280;38141;42.666;23.344;2023-01-16T00:02:31;94470.91;;;0.08;100.00
3178;BME280;38141;42.666;23.344;2023-01-16T00:04:58;94482.88;;;0.22;100.00
3178;BME280;38141;42.666;23.344;2023-01-16T00:07:26;94462.88;;;-0.13;100.00
3178;BME280;38141;42.666;23.344;2023-01-16T00:09:53;94478.09;;;0.07;100.00
3178;BME280;38141;42.666;23.344;2023-01-16T00:12:21;94360.00;;;-0.71;100.00
3178;BME280;38141;42.666;23.344;2023-01-16T00:15:02;94589.75;;;1.04;100.00
3178;BME280;38141;42.666;23.344;2023-01-16T00:17:29;94322.47;;;-0.61;100.00
3178;BME280;38141;42.666;23.344;2023-01-16T00:19:56;94533.44;;;0.72;100.00
3178;BME280;38141;42.666;23.344;2023-01-16T00:22:23;94534.91;;;0.61;100.00
3178;BME280;38141;42.666;23.344;2023-01-16T00:28:15;94589.66;;;0.92;100.00
3178;BME280;38141;42.666;23.344;2023-01-16T00:34:04;94435.56;;;0.07;100.00
3178;BME280;38141;42.666;23.344;2023-01-16T00:36:31;94388.31;;;-0.17;100.00
3178;BME280;38141;42.666;23.344;2023-01-16T00:38:58;94503.22;;;0.48;100.00
3178;BME280;38141;42.666;23.344;2023-01-16T00:41:24;94540.41;;;1.18;100.00
3178;BME280;38141;42.666;23.344;2023-01-16T00:43:53;94513.53;;;1.11;100.00
3178;BME280;38141;42.666;23.344;2023-01-16T00:46:22;94526.47;;;1.21;100.00
3178;BME280;38141;42.666;23.344;2023-01-16T00:48:48;94410.16;;;0.39;100.00
3178;BME280;38141;42.666;23.344;2023-01-16T00:51:15;94450.97;;;0.43;100.00
3178;BME280;38141;42.666;23.344;2023-01-16T00:53:42;94512.91;;;0.94;100.00
3178;BME280;38141;42.666;23.344;2023-01-16T00:56:41;94539.19;;;1.16;100.00
3178;BME280;38141;42.666;23.344;2023-01-16T00:59:13;94523.00;;;1.00;100.00
3178;BME280;38141;42.666;23.344;2023-01-16T01:01:40;94515.16;;;0.83;100.00
3178;BME280;38141;42.666;23.344;2023-01-16T01:04:07;94471.47;;;0.22;100.00
3178;BME280;38141;42.666;23.344;2023-01-16T01:06:34;94374.47;;;-0.31;100.00
3178;BME280;38141;42.666;23.344;2023-01-16T01:09:01;94490.94;;;0.34;100.00
3178;BME280;38141;42.666;23.344;2023-01-16T01:11:42;94511.13;;;0.56;100.00
3178;BME280;38141;42.666;23.344;2023-01-16T01:14:13;94361.06;;;-0.34;100.00
3178;BME280;38141;42.666;23.344;2023-01-16T01:16:40;94520.56;;;0.74;100.00
3178;BME280;38141;42.666;23.344;2023-01-16T01:19:07;94542.63;;;0.96;100.00
3178;BME280;38141;42.666;23.344;2023-01-16T01:21:37;94499.06;;;0.79;100.00
3178;BME280;38141;42.666;23.344;2023-01-16T01:24:17;94525.56;;;0.76;100.00
3178;BME280;38141;42.666;23.344;2023-01-16T01:26:47;94466.03;;;0.10;100.00
3178;BME280;38141;42.666;23.344;2023-01-16T01:29:15;94504.00;;;0.48;100.00
3178;BME280;38141;42.666;23.344;2023-01-16T01:31:42;94486.28;;;0.52;100.00
3178;BME280;38141;42.666;23.344;2023-01-16T01:34:09;94448.53;;;0.09;100.00
3178;BME280;38141;42.666;23.344;2023-01-16T01:36:35;94372.84;;;-0.44;100.00
3178;BME280;38141;42.666;23.344;2023-01-16T01:39:03;94453.81;;;0.17;100.00
3178;BME280;38141;42.666;23.344;2023-01-16T01:41:30;94407.44;;;0.27;100.00
3178;BME280;38141;42.666;23.344;2023-01-16T01:47:23;94466.03;;;0.80;100.00
3178;BME280;38141;42.666;23.344;2023-01-16T01:53:16;94493.44;;;0.81;100.00
3178;BME280;38141;42.666;23.344;2023-01-16T01:55:45;94479.53;;;0.75;100.00
3178;BME280;38141;42.666;23.344;2023-01-16T01:58:14;94469.84;;;0.71;100.00
3178;BME280;38141;42.666;23.344;2023-01-16T02:00:48;94450.25;;;0.75;100.00
3178;BME280;38141;42.666;23.344;2023-01-16T02:03:22;94459.13;;;0.79;100.00
3178;BME280;38141;42.666;23.344;2023-01-16T02:05:52;94372.66;;;0.11;100.00
3178;BME280;38141;42.666;23.344;2023-01-16T02:08:25;94361.44;;;0.26;100.00
3178;BME280;38141;42.666;23.344;2023-01-16T02:10:58;94377.78;;;0.16;100.00
3178;BME280;38141;42.666;23.344;2023-01-16T02:13:27;94499.91;;;0.92;100.00
3178;BME280;38141;42.666;23.344;2023-01-16T02:15:55;94245.97;;;-0.47;100.00
3178;BME280;38141;42.666;23.344;2023-01-16T02:18:41;94407.88;;;0.29;100.00
3178;BME280;38141;42.666;23.344;2023-01-16T02:21:42;94478.09;;;0.99;100.00
3178;BME280;38141;42.666;23.344;2023-01-16T02:24:30;94449.06;;;0.64;100.00
3178;BME280;38141;42.666;23.344;2023-01-16T02:27:14;94440.41;;;0.05;100.00
3178;BME280;38141;42.666;23.344;2023-01-16T02:30:01;94396.84;;;0.18;100.00
3178;BME280;38141;42.666;23.344;2023-01-16T02:32:43;94470.13;;;0.57;100.00
3178;BME280;38141;42.666;23.344;2023-01-16T02:35:27;94521.00;;;0.56;100.00
3178;BME280;38141;42.666;23.344;2023-01-16T02:38:00;94485.78;;;0.59;100.00
3178;BME280;38141;42.666;23.344;2023-01-16T02:40:38;94301.69;;;-0.59;100.00
3178;BME280;38141;42.666;23.344;2023-01-16T02:43:14;94485.00;;;0.58;100.00
3178;BME280;38141;42.666;23.344;2023-01-16T02:45:49;94307.25;;;-0.52;100.00
3178;BME280;38141;42.666;23.344;2023-01-16T02:48:26;94301.91;;;-0.73;100.00
3178;BME280;38141;42.666;23.344;2023-01-16T02:50:57;94489.19;;;0.59;100.00
3178;BME280;38141;42.666;23.344;2023-01-16T02:53:29;94363.47;;;0.09;100.00
3178;BME280;38141;42.666;23.344;2023-01-16T02:55:57;94310.03;;;-0.19;100.00
3178;BME280;38141;42.666;23.344;2023-01-16T02:58:29;94313.31;;;-0.22;100.00
3178;BME280;38141;42.666;23.344;2023-01-16T03:00:59;94231.38;;;-1.12;100.00
3178;BME280;38141;42.666;23.344;2023-01-16T03:03:38;94410.53;;;-0.21;100.00
3178;BME280;38141;42.666;23.344;2023-01-16T03:06:17;94396.41;;;-0.13;100.00
3178;BME280;38141;42.666;23.344;2023-01-16T03:08:53;94382.06;;;-0.41;100.00
3178;BME280;38141;42.666;23.344;2023-01-16T03:11:25;94368.38;;;-0.31;100.00
3178;BME280;38141;42.666;23.344;2023-01-16T03:14:11;94341.53;;;-0.68;100.00
3178;BME280;38141;42.666;23.344;2023-01-16T03:16:50;94394.06;;;0.15;100.00
3178;BME280;38141;42.666;23.344;2023-01-16T03:26:09;94377.31;;;-0.07;100.00
3178;BME280;38141;42.666;23.344;2023-01-16T03:28:47;94333.41;;;-0.33;100.00
3178;BME280;38141;42.666;23.344;2023-01-16T03:31:26;94374.19;;;-0.09;100.00
3178;BME280;38141;42.666;23.344;2023-01-16T03:34:02;94365.94;;;-0.36;100.00
3178;BME280;38141;42.666;23.344;2023-01-16T03:36:40;94324.53;;;-0.17;100.00
3178;BME280;38141;42.666;23.344;2023-01-16T03:39:10;94221.66;;;-1.08;100.00
3178;BME280;38141;42.666;23.344;2023-01-16T03:41:41;94227.09;;;-1.04;100.00
3178;BME280;38141;42.666;23.344;2023-01-16T03:44:17;94254.06;;;-0.64;100.00
3178;BME280;38141;42.666;23.344;2023-01-16T03:46:51;94204.59;;;-0.98;100.00
3178;BME280;38141;42.666;23.344;2023-01-16T03:49:19;94278.94;;;-0.48;100.00
3178;BME280;38141;42.666;23.344;2023-01-16T03:51:49;94355.88;;;-0.31;100.00
3178;BME280;38141;42.666;23.344;2023-01-16T03:54:25;94202.00;;;-1.07;100.00
3178;BME280;38141;42.666;23.344;2023-01-16T03:57:04;94381.66;;;-0.23;100.00
3178;BME280;38141;42.666;23.344;2023-01-16T03:59:35;94299.19;;;-0.14;100.00
3178;BME280;38141;42.666;23.344;2023-01-16T04:02:06;94131.81;;;-1.18;100.00
3178;BME280;38141;42.666;23.344;2023-01-16T04:04:40;94133.50;;;-1.13;100.00
3178;BME280;38141;42.666;23.344;2023-01-16T04:07:11;94306.44;;;-0.73;100.00
3178;BME280;38141;42.666;23.344;2023-01-16T04:09:43;94165.50;;;-1.39;100.00
3178;BME280;38141;42.666;23.344;2023-01-16T04:12:17;94326.59;;;-0.22;100.00
3178;BME280;38141;42.666;23.344;2023-01-16T04:14:50;94168.66;;;-1.16;100.00
3178;BME280;38141;42.666;23.344;2023-01-16T04:17:20;94261.91;;;-0.47;100.00
3178;BME280;38141;42.666;23.344;2023-01-16T04:19:53;94333.44;;;0.08;100.00
3178;BME280;38141;42.666;23.344;2023-01-16T04:22:22;94331.06;;;0.27;100.00
3178;BME280;38141;42.666;23.344;2023-01-16T04:24:50;94192.13;;;-0.35;100.00
3178;BME280;38141;42.666;23.344;2023-01-16T04:27:20;94192.53;;;-0.87;100.00
3178;BME280;38141;42.666;23.344;2023-01-16T04:29:47;94317.97;;;0.55;100.00
3178;BME280;38141;42.666;23.344;2023-01-16T04:32:14;94310.75;;;0.43;100.00
3178;BME280;38141;42.666;23.344;2023-01-16T04:34:41;94278.09;;;0.22;100.00
3178;BME280;38141;42.666;23.344;2023-01-16T04:37:12;94279.50;;;0.40;100.00
3178;BME280;38141;42.666;23.344;2023-01-16T04:39:41;94263.19;;;0.42;100.00
3178;BME280;38141;42.666;23.344;2023-01-16T04:42:09;94285.09;;;0.06;100.00
3178;BME280;38141;42.666;23.344;2023-01-16T04:44:37;94278.03;;;0.10;100.00
3178;BME280;38141;42.666;23.344;2023-01-16T04:47:04;94273.34;;;0.28;100.00
3178;BME280;38141;42.666;23.344;2023-01-16T04:49:31;94205.66;;;-0.28;100.00
3178;BME280;38141;42.666;23.344;2023-01-16T04:51:58;94353.69;;;0.54;100.00
3178;BME280;38141;42.666;23.344;2023-01-16T04:54:25;94238.00;;;-0.26;100.00
3178;BME280;38141;42.666;23.344;2023-01-16T04:56:52;94343.78;;;0.75;100.00
3178;BME280;38141;42.666;23.344;2023-01-16T04:59:19;94315.28;;;0.43;100.00
3178;BME280;38141;42.666;23.344;2023-01-16T05:01:56;94274.09;;;0.28;100.00
3178;BME280;38141;42.666;23.344;2023-01-16T06:33:54;94310.34;;;2.11;100.00
3178;BME280;38141;42.666;23.344;2023-01-16T06:36:21;94263.06;;;1.96;100.00
3178;BME280;38141;42.666;23.344;2023-01-16T07:24:30;94155.50;;;2.51;100.00
3178;BME280;38141;42.666;23.344;2023-01-16T07:27:00;94064.34;;;2.18;100.00
3178;BME280;38141;42.666;23.344;2023-01-16T07:29:32;94126.03;;;2.16;100.00
3178;BME280;38141;42.666;23.344;2023-01-16T07:32:01;94263.53;;;3.17;100.00
3178;BME280;38141;42.666;23.344;2023-01-16T07:34:29;94118.66;;;2.57;100.00
3178;BME280;38141;42.666;23.344;2023-01-16T07:36:56;94231.28;;;3.09;100.00
3178;BME280;38141;42.666;23.344;2023-01-16T07:39:24;94230.66;;;3.32;100.00
3178;BME280;38141;42.666;23.344;2023-01-16T07:41:51;94233.78;;;3.34;100.00
3178;BME280;38141;42.666;23.344;2023-01-16T07:44:18;94146.34;;;2.84;100.00
3178;BME280;38141;42.666;23.344;2023-01-16T07:46:46;94284.00;;;3.75;100.00
3178;BME280;38141;42.666;23.344;2023-01-16T07:49:13;94014.69;;;2.13;100.00
3178;BME280;38141;42.666;23.344;2023-01-16T07:51:40;94232.28;;;3.52;100.00
3178;BME280;38141;42.666;23.344;2023-01-16T07:54:10;94182.28;;;3.02;100.00
3178;BME280;38141;42.666;23.344;2023-01-16T07:56:52;94139.31;;;2.60;100.00
3178;BME280;38141;42.666;23.344;2023-01-16T07:59:20;94165.09;;;3.19;100.00
3178;BME280;38141;42.666;23.344;2023-01-16T08:01:49;94068.91;;;2.49;100.00
3178;BME280;38141;42.666;23.344;2023-01-16T08:04:17;94219.94;;;3.47;100.00
3178;BME280;38141;42.666;23.344;2023-01-16T08:06:45;94180.00;;;3.20;100.00
3178;BME280;38141;42.666;23.344;2023-01-16T08:09:12;94187.75;;;3.59;100.00
3178;BME280;38141;42.666;23.344;2023-01-16T08:11:39;94131.59;;;3.40;100.00
3178;BME280;38141;42.666;23.344;2023-01-16T08:14:13;94173.25;;;3.80;100.00
3178;BME280;38141;42.666;23.344;2023-01-16T08:16:41;94089.72;;;3.29;100.00
3178;BME280;38141;42.666;23.344;2023-01-16T08:19:36;94224.94;;;4.64;100.00
3178;BME280;38141;42.666;23.344;2023-01-16T08:22:03;94130.25;;;3.88;100.00
3178;BME280;38141;42.666;23.344;2023-01-16T08:24:30;94194.25;;;4.16;100.00
3178;BME280;38141;42.666;23.344;2023-01-16T08:27:20;94208.22;;;4.48;100.00
3178;BME280;38141;42.666;23.344;2023-01-16T08:29:49;94214.41;;;4.52;100.00
3178;BME280;38141;42.666;23.344;2023-01-16T08:32:16;94158.28;;;3.94;100.00
3178;BME280;38141;42.666;23.344;2023-01-16T08:34:45;94179.41;;;4.87;100.00
3178;BME280;38141;42.666;23.344;2023-01-16T08:37:14;94243.63;;;5.25;100.00
3178;BME280;38141;42.666;23.344;2023-01-16T08:39:44;93993.19;;;3.53;100.00
3178;BME280;38141;42.666;23.344;2023-01-16T08:42:40;94214.53;;;6.43;100.00
3178;BME280;38141;42.666;23.344;2023-01-16T08:48:49;94201.41;;;7.15;100.00
3178;BME280;38141;42.666;23.344;2023-01-16T08:51:34;94216.91;;;8.95;100.00
3178;BME280;38141;42.666;23.344;2023-01-16T08:54:01;94165.19;;;8.36;100.00
3178;BME280;38141;42.666;23.344;2023-01-16T08:56:29;94177.13;;;8.35;100.00
3178;BME280;38141;42.666;23.344;2023-01-16T08:59:08;94114.56;;;7.11;100.00
3178;BME280;38141;42.666;23.344;2023-01-16T09:01:36;94228.56;;;7.47;100.00
3178;BME280;38141;42.666;23.344;2023-01-16T09:04:07;94115.03;;;7.28;100.00
3178;BME280;38141;42.666;23.344;2023-01-16T09:06:35;94012.38;;;6.53;100.00
3178;BME280;38141;42.666;23.344;2023-01-16T09:09:48;94126.03;;;7.05;100.00
3178;BME280;38141;42.666;23.344;2023-01-16T09:15:34;94018.34;;;5.89;100.00
3178;BME280;38141;42.666;23.344;2023-01-16T09:18:30;93996.88;;;5.55;100.00
3178;BME280;38141;42.666;23.344;2023-01-16T09:35:12;94019.31;;;7.23;100.00
3178;BME280;38141;42.666;23.344;2023-01-16T09:37:43;94045.66;;;6.93;100.00
3178;BME280;38141;42.666;23.344;2023-01-16T09:40:26;94108.16;;;7.34;100.00
3178;BME280;38141;42.666;23.344;2023-01-16T09:43:50;93915.66;;;6.53;100.00
3178;BME280;38141;42.666;23.344;2023-01-16T10:09:14;94120.06;;;8.16;100.00
3178;BME280;38141;42.666;23.344;2023-01-16T10:11:57;94069.09;;;7.68;100.00
3178;BME280;38141;42.666;23.344;2023-01-16T10:14:41;93996.72;;;7.38;100.00
3178;BME280;38141;42.666;23.344;2023-01-16T10:35:31;94035.75;;;7.94;100.00
3178;BME280;38141;42.666;23.344;2023-01-16T10:38:22;94057.41;;;8.40;100.00
3178;BME280;38141;42.666;23.344;2023-01-16T10:41:17;94031.59;;;8.49;100.00
3178;BME280;38141;42.666;23.344;2023-01-16T10:44:05;93947.16;;;7.46;100.00
3178;BME280;38141;42.666;23.344;2023-01-16T10:46:55;93944.16;;;7.76;100.00
3178;BME280;38141;42.666;23.344;2023-01-16T10:59:25;93785.47;;;6.37;100.00
3178;BME280;38141;42.666;23.344;2023-01-16T11:02:16;93762.91;;;6.59;100.00
3178;BME280;38141;42.666;23.344;2023-01-16T11:05:25;94002.88;;;7.42;100.00
3178;BME280;38141;42.666;23.344;2023-01-16T12:41:16;93698.47;;;7.01;94.59
3178;BME280;38141;42.666;23.344;2023-01-16T12:44:19;93784.16;;;7.74;92.37
3178;BME280;38141;42.666;23.344;2023-01-16T12:46:57;93796.84;;;7.17;97.29
3178;BME280;38141;42.666;23.344;2023-01-16T12:49:45;93637.75;;;6.26;100.00
3178;BME280;38141;42.666;23.344;2023-01-16T12:52:26;93739.94;;;6.93;97.11
3178;BME280;38141;42.666;23.344;2023-01-16T12:55:07;93627.41;;;6.35;96.43
3178;BME280;38141;42.666;23.344;2023-01-16T12:58:02;93805.69;;;7.98;94.00
3178;BME280;38141;42.666;23.344;2023-01-16T13:00:32;93802.97;;;7.95;93.04
3178;BME280;38141;42.666;23.344;2023-01-16T13:03:16;93632.44;;;6.90;92.25
3178;BME280;38141;42.666;23.344;2023-01-16T13:06:01;93847.22;;;7.48;100.00
3178;BME280;38141;42.666;23.344;2023-01-16T13:08:46;93577.69;;;5.58;100.00
3178;BME280;38141;42.666;23.344;2023-01-16T13:11:32;93576.28;;;5.89;100.00
3178;BME280;38141;42.666;23.344;2023-01-16T13:14:26;93765.25;;;6.78;100.00
3178;BME280;38141;42.666;23.344;2023-01-16T13:17:12;93842.00;;;6.58;100.00
3178;BME280;38141;42.666;23.344;2023-01-16T13:19:42;93750.22;;;6.56;100.00
3178;BME280;38141;42.666;23.344;2023-01-16T13:22:19;93728.69;;;6.31;100.00
3178;BME280;38141;42.666;23.344;2023-01-16T13:24:55;93732.97;;;6.57;100.00
3178;BME280;38141;42.666;23.344;2023-01-16T13:27:39;93649.13;;;5.91;100.00
3178;BME280;38141;42.666;23.344;2023-01-16T13:30:28;93729.50;;;6.60;100.00
3178;BME280;38141;42.666;23.344;2023-01-16T13:33:07;93530.34;;;5.04;100.00
3178;BME280;38141;42.666;23.344;2023-01-16T13:36:10;93752.19;;;6.73;100.00
3178;BME280;38141;42.666;23.344;2023-01-16T13:38:57;93526.53;;;5.09;100.00
3178;BME280;38141;42.666;23.344;2023-01-16T13:41:36;93752.81;;;6.28;100.00
3178;BME280;38141;42.666;23.344;2023-01-16T13:47:58;93621.91;;;5.93;100.00
3178;BME280;38141;42.666;23.344;2023-01-16T13:50:31;93635.34;;;5.96;100.00
3178;BME280;38141;42.666;23.344;2023-01-16T13:56:41;93743.00;;;6.92;100.00
3178;BME280;38141;42.666;23.344;2023-01-16T13:59:33;93756.47;;;6.88;100.00
3178;BME280;38141;42.666;23.344;2023-01-16T14:09:08;93535.91;;;5.57;100.00
3178;BME280;38141;42.666;23.344;2023-01-16T14:11:57;93499.91;;;5.62;100.00
3178;BME280;38141;42.666;23.344;2023-01-16T14:14:56;93733.41;;;6.87;100.00
3178;BME280;38141;42.666;23.344;2023-01-16T14:20:50;93646.13;;;6.07;100.00
3178;BME280;38141;42.666;23.344;2023-01-16T14:23:22;93672.69;;;6.44;100.00
3178;BME280;38141;42.666;23.344;2023-01-16T14:26:22;93755.34;;;7.07;100.00
3178;BME280;38141;42.666;23.344;2023-01-16T14:29:15;93578.59;;;5.94;100.00
3178;BME280;38141;42.666;23.344;2023-01-16T14:34:50;93643.78;;;5.98;100.00
3178;BME280;38141;42.666;23.344;2023-01-16T14:37:32;93748.41;;;6.81;100.00
3178;BME280;38141;42.666;23.344;2023-01-16T14:40:02;93731.09;;;6.82;100.00
3178;BME280;38141;42.666;23.344;2023-01-16T14:49:40;93741.00;;;6.46;100.00
3178;BME280;38141;42.666;23.344;2023-01-16T14:52:59;93672.91;;;5.93;100.00
3178;BME280;38141;42.666;23.344;2023-01-16T14:55:51;93536.44;;;4.98;100.00
3178;BME280;38141;42.666;23.344;2023-01-16T14:58:41;93630.69;;;5.14;100.00
3178;BME280;38141;42.666;23.344;2023-01-16T15:01:25;93538.94;;;4.69;100.00
3178;BME280;38141;42.666;23.344;2023-01-16T15:04:12;93664.66;;;5.54;100.00
3178;BME280;38141;42.666;23.344;2023-01-16T15:07:00;93685.84;;;5.80;100.00
3178;BME280;38141;42.666;23.344;2023-01-16T15:10:00;93728.56;;;6.10;100.00
3178;BME280;38141;42.666;23.344;2023-01-16T15:12:37;93626.09;;;5.14;100.00
3178;BME280;38141;42.666;23.344;2023-01-16T15:15:28;93550.03;;;4.20;100.00
3178;BME280;38141;42.666;23.344;2023-01-16T15:22:13;93541.50;;;4.55;100.00
3178;BME280;38141;42.666;23.344;2023-01-16T15:24:48;93609.63;;;4.54;100.00
3178;BME280;38141;42.666;23.344;2023-01-16T15:27:33;93570.41;;;3.91;100.00
3178;BME280;38141;42.666;23.344;2023-01-16T15:33:26;93567.25;;;4.23;100.00
3178;BME280;38141;42.666;23.344;2023-01-16T15:36:22;93706.91;;;4.69;100.00
3178;BME280;38141;42.666;23.344;2023-01-16T15:45:50;93704.34;;;4.83;100.00
3178;BME280;38141;42.666;23.344;2023-01-16T15:48:41;93689.03;;;4.39;100.00
3178;BME280;38141;42.666;23.344;2023-01-16T15:51:18;93685.56;;;4.76;100.00
3178;BME280;38141;42.666;23.344;2023-01-16T15:54:14;93733.66;;;5.09;100.00
3178;BME280;38141;42.666;23.344;2023-01-16T15:56:42;93696.03;;;4.51;100.00
3178;BME280;38141;42.666;23.344;2023-01-16T15:59:22;93745.25;;;5.20;100.00
3178;BME280;38141;42.666;23.344;2023-01-16T16:01:55;93717.66;;;4.72;100.00
3178;BME280;38141;42.666;23.344;2023-01-16T16:04:36;93615.84;;;4.25;100.00
3178;BME280;38141;42.666;23.344;2023-01-16T16:07:07;93599.97;;;3.69;100.00
3178;BME280;38141;42.666;23.344;2023-01-16T16:09:48;93728.59;;;4.57;100.00
3178;BME280;38141;42.666;23.344;2023-01-16T16:19:35;93670.81;;;4.56;100.00
3178;BME280;38141;42.666;23.344;2023-01-16T16:22:10;93785.69;;;5.05;100.00
3178;BME280;38141;42.666;23.344;2023-01-16T16:24:55;93552.69;;;3.76;100.00
3178;BME280;38141;42.666;23.344;2023-01-16T16:34:03;93619.97;;;4.15;100.00
3178;BME280;38141;42.666;23.344;2023-01-16T16:36:51;93727.53;;;4.65;100.00
3178;BME280;38141;42.666;23.344;2023-01-16T16:39:34;93673.47;;;4.15;100.00
3178;BME280;38141;42.666;23.344;2023-01-16T16:42:45;93630.31;;;4.17;100.00
3178;BME280;38141;42.666;23.344;2023-01-16T16:45:19;93664.81;;;4.29;100.00
3178;BME280;38141;42.666;23.344;2023-01-16T16:48:19;93512.06;;;3.27;100.00
3178;BME280;38141;42.666;23.344;2023-01-16T16:50:49;93439.94;;;3.27;100.00
3178;BME280;38141;42.666;23.344;2023-01-16T16:53:52;93696.81;;;4.52;100.00
3178;BME280;38141;42.666;23.344;2023-01-16T16:56:22;93447.09;;;3.19;100.00
3178;BME280;38141;42.666;23.344;2023-01-16T16:59:22;93516.50;;;3.49;100.00
3178;BME280;38141;42.666;23.344;2023-01-16T17:05:16;93678.78;;;4.92;100.00
3178;BME280;38141;42.666;23.344;2023-01-16T17:07:55;93502.34;;;3.85;100.00
3178;BME280;38141;42.666;23.344;2023-01-16T17:13:46;93549.09;;;4.46;100.00
3178;BME280;38141;42.666;23.344;2023-01-16T17:16:27;93716.59;;;4.80;100.00
3178;BME280;38141;42.666;23.344;2023-01-16T17:18:59;93482.66;;;4.04;100.00
3178;BME280;38141;42.666;23.344;2023-01-16T17:21:30;93644.88;;;4.63;100.00
3178;BME280;38141;42.666;23.344;2023-01-16T17:24:17;93643.41;;;4.73;100.00
3178;BME280;38141;42.666;23.344;2023-01-16T17:26:47;93600.09;;;4.60;100.00
3178;BME280;38141;42.666;23.344;2023-01-16T17:29:15;93609.69;;;4.65;100.00
3178;BME280;38141;42.666;23.344;2023-01-16T17:31:44;93560.25;;;4.08;100.00
3178;BME280;38141;42.666;23.344;2023-01-16T17:37:42;93437.59;;;3.22;100.00
3178;BME280;38141;42.666;23.344;2023-01-16T17:40:21;93643.66;;;4.54;100.00
3178;BME280;38141;42.666;23.344;2023-01-16T17:42:51;93568.69;;;4.10;100.00
3178;BME280;38141;42.666;23.344;2023-01-16T17:59:10;93545.56;;;4.31;100.00
3178;BME280;38141;42.666;23.344;2023-01-16T18:05:33;93633.97;;;4.42;100.00
3178;BME280;38141;42.666;23.344;2023-01-16T18:08:17;93581.69;;;4.55;100.00
3178;BME280;38141;42.666;23.344;2023-01-16T18:10:49;93587.59;;;4.78;100.00
3178;BME280;38141;42.666;23.344;2023-01-16T18:13:17;93550.91;;;4.31;100.00
3178;BME280;38141;42.666;23.344;2023-01-16T18:16:30;93645.66;;;5.18;100.00
3178;BME280;38141;42.666;23.344;2023-01-16T18:19:15;93462.16;;;3.78;100.00
3178;BME280;38141;42.666;23.344;2023-01-16T18:21:55;93622.59;;;5.03;100.00
3178;BME280;38141;42.666;23.344;2023-01-16T18:24:49;93587.94;;;4.26;100.00
3178;BME280;38141;42.666;23.344;2023-01-16T18:27:27;93464.03;;;3.34;100.00
3178;BME280;38141;42.666;23.344;2023-01-16T18:29:58;93466.72;;;3.74;100.00
3178;BME280;38141;42.666;23.344;2023-01-16T18:32:33;93606.72;;;3.92;100.00
3178;BME280;38141;42.666;23.344;2023-01-16T18:35:03;93628.41;;;4.61;100.00
3178;BME280;38141;42.666;23.344;2023-01-16T18:37:32;93402.22;;;2.98;100.00
3178;BME280;38141;42.666;23.344;2023-01-16T18:40:00;93457.69;;;3.08;100.00
3178;BME280;38141;42.666;23.344;2023-01-16T18:46:13;93600.53;;;4.22;100.00
3178;BME280;38141;42.666;23.344;2023-01-16T18:49:00;93597.88;;;4.25;100.00
3178;BME280;38141;42.666;23.344;2023-01-16T18:51:51;93592.28;;;4.41;100.00
3178;BME280;38141;42.666;23.344;2023-01-16T18:54:36;93535.06;;;3.05;100.00
3178;BME280;38141;42.666;23.344;2023-01-16T18:57:23;93606.09;;;4.06;100.00
3178;BME280;38141;42.666;23.344;2023-01-16T19:00:13;93598.69;;;3.89;100.00
3178;BME280;38141;42.666;23.344;2023-01-16T19:02:58;93507.69;;;3.11;100.00
3178;BME280;38141;42.666;23.344;2023-01-16T19:05:28;93563.25;;;3.62;100.00
3178;BME280;38141;42.666;23.344;2023-01-16T19:15:06;93602.34;;;4.11;100.00
3178;BME280;38141;42.666;23.344;2023-01-16T19:17:34;93507.81;;;3.59;100.00
3178;BME280;38141;42.666;23.344;2023-01-16T19:20:01;93455.88;;;3.20;100.00
3178;BME280;38141;42.666;23.344;2023-01-16T19:22:33;93459.97;;;2.77;100.00
3178;BME280;38141;42.666;23.344;2023-01-16T19:25:22;93619.75;;;3.94;100.00
3178;BME280;38141;42.666;23.344;2023-01-16T19:31:10;93584.22;;;3.97;100.00
3178;BME280;38141;42.666;23.344;2023-01-16T19:33:41;93674.44;;;4.00;100.00
3178;BME280;38141;42.666;23.344;2023-01-16T19:52:53;93593.84;;;3.68;100.00
3178;BME280;38141;42.666;23.344;2023-01-16T19:55:20;93575.00;;;3.54;100.00
3178;BME280;38141;42.666;23.344;2023-01-16T19:57:48;93514.78;;;3.30;100.00
3178;BME280;38141;42.666;23.344;2023-01-16T20:00:16;93406.06;;;3.01;100.00
3178;BME280;38141;42.666;23.344;2023-01-16T20:02:59;93433.84;;;2.96;100.00
3178;BME280;38141;42.666;23.344;2023-01-16T20:05:29;93568.81;;;3.83;100.00
3178;BME280;38141;42.666;23.344;2023-01-16T20:08:20;93494.84;;;2.61;100.00
3178;BME280;38141;42.666;23.344;2023-01-16T20:10:57;93400.81;;;2.15;100.00
3178;BME280;38141;42.666;23.344;2023-01-16T20:13:39;93407.28;;;2.74;100.00
3178;BME280;38141;42.666;23.344;2023-01-16T20:16:22;93603.84;;;4.08;100.00
3178;BME280;38141;42.666;23.344;2023-01-16T20:19:02;93519.06;;;3.38;100.00
3178;BME280;38141;42.666;23.344;2023-01-16T20:21:36;93525.28;;;3.86;100.00
3178;BME280;38141;42.666;23.344;2023-01-16T20:24:16;93435.06;;;2.99;100.00
3178;BME280;38141;42.666;23.344;2023-01-16T20:26:57;93477.28;;;2.90;100.00
3178;BME280;38141;42.666;23.344;2023-01-16T20:29:30;93508.50;;;3.16;100.00
3178;BME280;38141;42.666;23.344;2023-01-16T20:35:26;93431.91;;;2.90;100.00
3178;BME280;38141;42.666;23.344;2023-01-16T20:48:10;93576.28;;;3.67;100.00
3178;BME280;38141;42.666;23.344;2023-01-16T20:50:40;93454.38;;;2.89;100.00
3178;BME280;38141;42.666;23.344;2023-01-16T20:53:07;93578.06;;;3.93;100.00
3178;BME280;38141;42.666;23.344;2023-01-16T20:55:34;93542.09;;;3.50;100.00
3178;BME280;38141;42.666;23.344;2023-01-16T21:03:16;93543.91;;;3.76;100.00
3178;BME280;38141;42.666;23.344;2023-01-16T21:05:47;93490.22;;;3.18;100.00
3178;BME280;38141;42.666;23.344;2023-01-16T21:08:17;93587.72;;;4.04;100.00
3178;BME280;38141;42.666;23.344;2023-01-16T21:31:36;93531.59;;;3.68;100.00
3178;BME280;38141;42.666;23.344;2023-01-16T21:34:04;93494.13;;;2.94;100.00
3178;BME280;38141;42.666;23.344;2023-01-16T21:36:34;93481.97;;;3.00;100.00
3178;BME280;38141;42.666;23.344;2023-01-16T22:05:35;93342.03;;;3.08;100.00
3178;BME280;38141;42.666;23.344;2023-01-16T22:08:03;93339.81;;;3.17;100.00